createdAt,value
2022-09-12T00:00:05.107Z,5.10
2022-09-12T00:02:40.836Z,4.90
2022-09-12T00:05:08.936Z,5.03
2022-09-12T00:07:36.776Z,5.50
2022-09-12T00:10:05.325Z,6.00
2022-09-12T00:12:33.131Z,5.77
2022-09-12T00:15:00.927Z,5.47
2022-09-12T00:17:28.796Z,5.80
2022-09-12T00:19:58.795Z,6.40
2022-09-12T00:22:26.639Z,5.20
2022-09-12T00:24:54.440Z,5.40
2022-09-12T00:27:22.226Z,5.40
2022-09-12T00:29:50.099Z,5.90
2022-09-12T00:32:17.914Z,5.17
2022-09-12T00:34:45.768Z,5.10
2022-09-12T00:37:14.970Z,5.40
2022-09-12T00:39:42.780Z,5.60
2022-09-12T00:42:11.494Z,5.50
2022-09-12T00:44:57.254Z,5.63
2022-09-12T00:47:27.958Z,6.40
2022-09-12T00:50:06.401Z,5.77
2022-09-12T00:52:42.770Z,6.67
2022-09-12T00:55:17.565Z,6.23
2022-09-12T00:57:53.255Z,7.40
2022-09-12T01:00:23.879Z,7.00
2022-09-12T01:02:54.829Z,7.37
2022-09-12T01:05:24.524Z,6.40
2022-09-12T01:07:54.128Z,6.57
2022-09-12T01:10:22.152Z,6.83
2022-09-12T01:12:50.073Z,6.97
2022-09-12T01:15:18.222Z,7.67
2022-09-12T01:18:04.483Z,6.93
2022-09-12T01:20:51.382Z,6.30
2022-09-12T01:23:49.372Z,7.03
2022-09-12T01:26:47.456Z,6.10
2022-09-12T01:29:36.309Z,6.43
2022-09-12T01:32:12.020Z,5.80
2022-09-12T01:34:48.457Z,6.40
2022-09-12T01:37:25.984Z,6.33
2022-09-12T01:40:03.098Z,6.20
2022-09-12T01:42:35.708Z,6.17
2022-09-12T01:45:13.236Z,6.50
2022-09-12T01:47:47.097Z,6.10
2022-09-12T01:50:20.460Z,6.43
2022-09-12T01:52:53.753Z,6.20
2022-09-12T01:55:25.977Z,6.53
2022-09-12T01:57:57.699Z,6.70
2022-09-12T02:00:25.899Z,6.67
2022-09-12T02:03:02.921Z,6.23
2022-09-12T02:05:33.340Z,6.40
2022-09-12T02:08:08.123Z,6.03
2022-09-12T02:10:43.280Z,5.33
2022-09-12T02:13:14.811Z,6.40
2022-09-12T02:15:48.633Z,6.07
2022-09-12T02:18:19.397Z,6.00
2022-09-12T02:20:49.557Z,6.00
2022-09-12T02:23:23.232Z,6.23
2022-09-12T02:25:55.652Z,6.00
2022-09-12T02:28:28.417Z,6.20
2022-09-12T02:31:07.619Z,5.80
2022-09-12T02:33:45.011Z,5.63
2022-09-12T02:36:24.031Z,6.03
2022-09-12T02:38:52.364Z,7.00
2022-09-12T02:41:21.696Z,6.30
2022-09-12T02:43:51.461Z,5.97
2022-09-12T02:46:23.505Z,6.73
2022-09-12T02:48:53.040Z,7.00
2022-09-12T02:51:23.744Z,6.60
2022-09-12T02:53:52.360Z,6.40
2022-09-12T02:56:25.868Z,5.90
2022-09-12T02:58:55.540Z,6.10
2022-09-12T03:01:33.680Z,5.20
2022-09-12T03:04:27.617Z,6.03
2022-09-12T03:07:12.373Z,5.20
2022-09-12T03:09:46.803Z,5.03
2022-09-12T03:12:35.065Z,5.87
2022-09-12T03:15:19.358Z,6.00
2022-09-12T03:18:04.737Z,6.20
2022-09-12T03:20:44.386Z,6.90
2022-09-12T03:23:23.017Z,6.33
2022-09-12T03:25:57.662Z,5.73
2022-09-12T03:28:25.889Z,5.50
2022-09-12T03:30:56.506Z,6.80
2022-09-12T03:33:26.389Z,5.53
2022-09-12T03:35:56.258Z,5.10
2022-09-12T03:38:24.191Z,5.73
2022-09-12T03:40:54.802Z,5.87
2022-09-12T03:43:23.041Z,5.87
2022-09-12T03:45:53.323Z,5.30
2022-09-12T03:48:21.285Z,5.70
2022-09-12T03:50:49.057Z,6.20
2022-09-12T03:53:18.382Z,7.53
2022-09-12T03:55:46.341Z,6.17
2022-09-12T03:58:14.189Z,6.30
2022-09-12T04:00:43.022Z,5.80
2022-09-12T04:03:10.837Z,5.97
2022-09-12T04:05:38.633Z,5.67
2022-09-12T04:08:06.630Z,6.03
2022-09-12T04:10:35.780Z,6.60
2022-09-12T04:13:03.621Z,5.70
2022-09-12T04:15:31.400Z,6.30
2022-09-12T04:18:03.656Z,6.00
2022-09-12T04:20:33.455Z,6.83
2022-09-12T04:23:01.269Z,6.50
2022-09-12T04:25:31.328Z,6.00
2022-09-12T04:28:00.533Z,5.63
2022-09-12T04:30:28.426Z,5.17
2022-09-12T04:32:56.204Z,5.30
2022-09-12T04:35:23.993Z,5.00
2022-09-12T04:37:51.836Z,5.63
2022-09-12T04:40:19.808Z,5.90
2022-09-12T04:42:47.560Z,4.70
2022-09-12T04:45:16.763Z,5.03
2022-09-12T04:47:46.442Z,5.13
2022-09-12T04:50:14.864Z,4.97
2022-09-12T04:52:42.832Z,10.30
2022-09-12T04:55:10.927Z,4.30
2022-09-12T04:57:38.804Z,4.50
2022-09-12T05:00:07.904Z,4.20
2022-09-12T05:02:37.079Z,5.60
2022-09-12T05:05:05.308Z,5.03
2022-09-12T05:07:33.161Z,4.43
2022-09-12T05:10:01.170Z,4.07
2022-09-12T05:12:28.993Z,4.07
2022-09-12T05:14:56.811Z,4.40
2022-09-12T05:17:24.584Z,4.73
2022-09-12T05:19:53.701Z,4.60
2022-09-12T05:22:21.492Z,4.70
2022-09-12T05:24:50.657Z,5.80
2022-09-12T05:27:18.826Z,5.60
2022-09-12T05:29:46.641Z,4.63
2022-09-12T05:32:14.479Z,4.30
2022-09-12T05:34:42.290Z,3.50
2022-09-12T05:37:13.023Z,4.80
2022-09-12T05:39:41.183Z,5.43
2022-09-12T05:42:08.999Z,4.40
2022-09-12T05:44:37.042Z,5.40
2022-09-12T05:47:05.107Z,4.70
2022-09-12T05:49:32.880Z,4.30
2022-09-12T05:52:00.640Z,3.80
2022-09-12T05:54:31.643Z,3.93
2022-09-12T05:56:59.945Z,4.30
2022-09-12T05:59:28.450Z,3.87
2022-09-12T06:01:56.354Z,4.30
2022-09-12T06:04:24.923Z,4.57
2022-09-12T06:06:52.756Z,3.97
2022-09-12T06:09:20.727Z,4.03
2022-09-12T06:11:49.931Z,4.60
2022-09-12T06:14:19.769Z,4.57
2022-09-12T06:16:48.570Z,4.40
2022-09-12T06:19:18.649Z,4.10
2022-09-12T06:21:47.592Z,5.37
2022-09-12T06:24:15.426Z,5.40
2022-09-12T06:26:43.738Z,5.40
2022-09-12T06:29:13.243Z,5.00
2022-09-12T06:31:42.442Z,5.00
2022-09-12T06:34:12.537Z,5.33
2022-09-12T06:36:42.467Z,5.10
2022-09-12T06:39:13.350Z,5.20
2022-09-12T06:41:44.033Z,6.80
2022-09-12T06:44:16.539Z,5.47
2022-09-12T06:46:45.208Z,5.23
2022-09-12T06:49:13.462Z,4.10
2022-09-12T06:51:43.058Z,4.10
2022-09-12T06:54:13.196Z,4.77
2022-09-12T06:56:41.026Z,4.83
2022-09-12T06:59:08.888Z,4.43
2022-09-12T07:01:38.240Z,4.70
2022-09-12T07:04:06.434Z,4.80
2022-09-12T07:06:38.756Z,4.90
2022-09-12T07:09:07.777Z,5.00
2022-09-12T07:11:38.033Z,5.13
2022-09-12T07:14:07.807Z,5.67
2022-09-12T07:16:38.238Z,5.43
2022-09-12T07:19:08.343Z,5.40
2022-09-12T07:21:39.709Z,5.00
2022-09-12T07:24:09.697Z,4.80
2022-09-12T07:26:38.483Z,4.87
2022-09-12T07:29:34.759Z,4.90
2022-09-12T07:31:55.671Z,5.50
2022-09-12T07:34:23.497Z,4.73
2022-09-12T07:36:51.273Z,5.57
2022-09-12T07:39:19.084Z,4.80
2022-09-12T07:41:46.941Z,4.53
2022-09-12T07:44:14.738Z,4.50
2022-09-12T07:46:42.610Z,3.87
2022-09-12T07:49:13.208Z,3.90
2022-09-12T07:51:41.143Z,4.50
2022-09-12T07:54:09.250Z,3.40
2022-09-12T07:56:39.073Z,3.27
2022-09-12T07:59:07.507Z,3.33
2022-09-12T08:01:35.409Z,3.43
2022-09-12T08:04:04.864Z,3.20
2022-09-12T08:06:35.980Z,3.60
2022-09-12T08:09:05.808Z,3.30
2022-09-12T08:11:33.644Z,3.50
2022-09-12T08:14:03.015Z,3.20
2022-09-12T08:16:32.684Z,3.00
2022-09-12T08:19:02.654Z,3.80
2022-09-12T08:21:32.330Z,3.57
2022-09-12T08:24:03.585Z,3.80
2022-09-12T08:26:32.686Z,3.27
2022-09-12T08:29:00.973Z,3.33
2022-09-12T08:31:29.233Z,4.60
2022-09-12T08:33:58.392Z,3.30
2022-09-12T08:36:29.671Z,3.40
2022-09-12T08:39:00.731Z,3.70
2022-09-12T08:41:35.047Z,3.40
2022-09-12T08:44:30.899Z,3.30
2022-09-12T08:47:15.646Z,3.67
2022-09-12T08:49:52.508Z,3.33
2022-09-12T08:52:27.007Z,3.70
2022-09-12T08:54:56.461Z,3.50
2022-09-12T08:57:25.834Z,2.97
2022-09-12T08:59:54.055Z,3.10
2022-09-12T09:02:47.015Z,3.53
2022-09-12T09:05:22.401Z,3.50
2022-09-12T09:08:22.700Z,2.70
2022-09-12T09:10:54.970Z,3.80
2022-09-12T09:13:56.436Z,3.47
2022-09-12T09:16:30.604Z,3.20
2022-09-12T09:19:02.234Z,3.23
2022-09-12T09:21:38.423Z,3.10
2022-09-12T09:24:10.170Z,3.70
2022-09-12T09:26:46.076Z,3.40
2022-09-12T09:29:20.418Z,3.43
2022-09-12T09:31:50.278Z,3.20
2022-09-12T09:34:21.747Z,3.77
2022-09-12T09:36:52.351Z,3.57
2022-09-12T09:39:40.413Z,3.20
2022-09-12T09:42:19.337Z,3.80
2022-09-12T09:44:49.441Z,4.17
2022-09-12T09:47:20.208Z,4.00
2022-09-12T09:49:48.434Z,3.50
2022-09-12T09:52:22.025Z,4.00
2022-09-12T09:54:57.442Z,3.73
2022-09-12T09:57:44.276Z,3.50
2022-09-12T10:00:31.829Z,3.63
2022-09-12T10:03:11.325Z,3.80
2022-09-12T10:05:48.133Z,4.20
2022-09-12T10:08:22.365Z,3.60
2022-09-12T10:10:56.164Z,3.87
2022-09-12T10:13:35.153Z,3.67
2022-09-12T10:16:06.837Z,4.03
2022-09-12T10:18:42.340Z,3.20
2022-09-12T10:21:17.677Z,3.50
2022-09-12T10:23:47.821Z,3.80
2022-09-12T10:26:18.889Z,3.40
2022-09-12T10:28:51.714Z,4.20
2022-09-12T10:31:29.142Z,3.80
2022-09-12T10:34:01.182Z,3.30
2022-09-12T10:36:38.499Z,4.07
2022-09-12T10:39:07.732Z,4.33
2022-09-12T10:41:38.786Z,4.10
2022-09-12T10:44:10.067Z,4.17
2022-09-12T10:46:40.769Z,3.10
2022-09-12T10:49:24.252Z,3.77
2022-09-12T10:51:54.075Z,3.47
2022-09-12T10:54:25.154Z,3.50
2022-09-12T10:57:38.180Z,3.60
2022-09-12T11:00:14.458Z,3.60
2022-09-12T11:02:55.983Z,3.60
2022-09-12T11:05:37.356Z,3.83
2022-09-12T11:08:19.979Z,3.57
2022-09-12T11:10:57.104Z,2.90
2022-09-12T11:13:48.434Z,2.60
2022-09-12T11:16:29.745Z,2.70
2022-09-12T11:19:19.533Z,2.53
2022-09-12T11:22:06.468Z,2.70
2022-09-12T11:24:50.500Z,2.47
2022-09-12T11:27:34.930Z,2.40
2022-09-12T11:30:07.567Z,2.53
2022-09-12T11:33:09.926Z,2.60
2022-09-12T11:35:50.749Z,3.10
2022-09-12T11:38:52.990Z,2.60
2022-09-12T11:41:28.715Z,2.80
2022-09-12T11:44:03.602Z,2.80
2022-09-12T11:46:36.800Z,2.30
2022-09-12T11:49:16.144Z,2.40
2022-09-12T11:51:51.637Z,3.00
2022-09-12T11:54:26.261Z,2.83
2022-09-12T11:57:05.464Z,2.77
2022-09-12T11:59:41.563Z,3.13
2022-09-12T12:02:15.123Z,3.13
2022-09-12T12:04:56.951Z,2.27
2022-09-12T12:07:26.460Z,3.00
2022-09-12T12:09:55.717Z,2.67
2022-09-12T12:12:28.991Z,2.30
2022-09-12T12:14:59.061Z,2.73
2022-09-12T12:17:29.655Z,2.53
2022-09-12T12:20:05.587Z,2.40
2022-09-12T12:22:37.189Z,2.40
2022-09-12T12:25:29.410Z,2.90
2022-09-12T12:28:01.816Z,2.27
2022-09-12T12:31:01.977Z,2.80
2022-09-12T12:34:16.257Z,2.57
2022-09-12T12:36:44.563Z,2.67
2022-09-12T12:39:55.599Z,2.23
2022-09-12T12:43:05.738Z,3.00
2022-09-12T12:46:04.097Z,2.57
2022-09-12T12:48:49.447Z,2.40
2022-09-12T12:51:33.982Z,2.40
2022-09-12T12:54:04.041Z,2.30
2022-09-12T12:56:39.420Z,2.40
2022-09-12T12:59:18.040Z,2.60
2022-09-12T13:01:54.809Z,3.00
2022-09-12T13:04:25.920Z,2.70
2022-09-12T13:07:04.564Z,2.83
2022-09-12T13:09:39.650Z,2.97
2022-09-12T13:12:11.498Z,2.67
2022-09-12T13:14:51.585Z,2.70
2022-09-12T13:17:40.836Z,2.90
2022-09-12T13:20:28.235Z,2.90
2022-09-12T13:22:56.740Z,2.90
2022-09-12T13:25:29.254Z,2.50
2022-09-12T13:28:15.679Z,2.40
2022-09-12T13:30:46.529Z,2.30
2022-09-12T13:33:25.909Z,2.13
2022-09-12T13:36:25.989Z,2.40
2022-09-12T13:39:18.780Z,2.20
2022-09-12T13:42:43.324Z,2.63
2022-09-12T13:45:16.732Z,2.40
2022-09-12T13:47:45.978Z,2.43
2022-09-12T13:50:19.806Z,1.97
2022-09-12T13:52:51.592Z,2.40
2022-09-12T13:55:30.131Z,2.77
2022-09-12T13:58:00.188Z,2.20
2022-09-12T14:00:31.109Z,2.40
2022-09-12T14:03:17.564Z,2.40
2022-09-12T14:05:56.033Z,2.70
2022-09-12T14:08:24.822Z,2.93
2022-09-12T14:10:53.474Z,2.67
2022-09-12T14:13:24.733Z,3.30
2022-09-12T14:15:54.810Z,3.10
2022-09-12T14:18:26.348Z,2.83
2022-09-12T14:20:57.443Z,2.63
2022-09-12T14:23:30.097Z,3.00
2022-09-12T14:26:01.044Z,2.80
2022-09-12T14:28:30.255Z,2.50
2022-09-12T14:31:05.365Z,3.20
2022-09-12T14:33:35.762Z,2.60
2022-09-12T14:36:18.440Z,2.60
2022-09-12T14:38:50.066Z,2.50
2022-09-12T14:41:24.475Z,2.97
2022-09-12T14:43:55.540Z,2.70
2022-09-12T14:46:27.082Z,2.40
2022-09-12T14:48:58.701Z,2.50
2022-09-12T14:51:31.975Z,2.70
2022-09-12T14:53:59.840Z,2.40
2022-09-12T14:56:41.233Z,2.80
2022-09-12T14:59:30.650Z,3.30
2022-09-12T15:02:22.394Z,2.70
2022-09-12T15:04:52.032Z,3.03
2022-09-12T15:07:31.845Z,2.57
2022-09-12T15:10:01.231Z,2.63
2022-09-12T15:12:29.853Z,2.47
2022-09-12T15:15:01.863Z,2.80
2022-09-12T15:17:29.729Z,2.70
2022-09-12T15:19:57.549Z,2.60
2022-09-12T15:22:26.933Z,3.00
2022-09-12T15:24:56.458Z,2.40
2022-09-12T15:27:26.125Z,2.60
2022-09-12T15:29:54.011Z,2.50
2022-09-12T15:32:25.349Z,2.63
2022-09-12T15:34:53.517Z,2.50
2022-09-12T15:37:23.019Z,2.37
2022-09-12T15:39:52.659Z,3.30
2022-09-12T15:42:28.373Z,3.03
2022-09-12T15:45:00.575Z,2.23
2022-09-12T15:47:30.196Z,2.33
2022-09-12T15:49:57.990Z,2.70
2022-09-12T15:52:25.791Z,2.70
2022-09-12T15:54:55.000Z,4.80
2022-09-12T15:57:22.873Z,2.80
2022-09-12T15:59:50.861Z,2.90
2022-09-12T16:02:18.685Z,2.70
2022-09-12T16:04:48.026Z,2.57
2022-09-12T16:07:15.857Z,2.30
2022-09-12T16:09:43.619Z,2.60
2022-09-12T16:12:12.761Z,2.83
2022-09-12T16:14:40.566Z,2.83
2022-09-12T16:17:08.663Z,2.60
2022-09-12T16:19:36.603Z,4.13
2022-09-12T16:22:04.612Z,3.80
2022-09-12T16:24:32.590Z,3.07
2022-09-12T16:27:01.321Z,2.77
2022-09-12T16:29:30.665Z,2.83
2022-09-12T16:31:58.531Z,2.90
2022-09-12T16:34:26.381Z,2.80
2022-09-12T16:36:54.227Z,2.67
2022-09-12T16:39:22.069Z,2.73
2022-09-12T16:41:49.985Z,2.50
2022-09-12T16:44:17.789Z,3.03
2022-09-12T16:46:47.194Z,3.23
2022-09-12T16:49:15.201Z,2.77
2022-09-12T16:51:47.303Z,3.00
2022-09-12T16:54:15.704Z,2.80
2022-09-12T16:56:43.917Z,4.10
2022-09-12T16:59:16.125Z,3.10
2022-09-12T17:01:45.321Z,4.10
2022-09-12T17:04:14.518Z,3.20
2022-09-12T17:06:42.571Z,4.30
2022-09-12T17:09:11.412Z,3.20
2022-09-12T17:11:40.182Z,3.63
2022-09-12T17:14:10.342Z,3.20
2022-09-12T17:16:41.104Z,3.13
2022-09-12T17:19:10.200Z,2.97
2022-09-12T17:21:39.398Z,2.87
2022-09-12T17:24:07.286Z,2.80
2022-09-12T17:26:35.175Z,2.90
2022-09-12T17:29:03.237Z,4.00
2022-09-12T17:31:31.752Z,3.07
2022-09-12T17:34:00.746Z,3.80
2022-09-12T17:36:29.466Z,5.00
2022-09-12T17:38:59.546Z,4.67
2022-09-12T17:41:31.658Z,5.30
2022-09-12T17:44:01.292Z,6.27
2022-09-12T17:46:33.414Z,5.10
2022-09-12T17:49:02.183Z,4.67
2022-09-12T17:51:31.645Z,4.57
2022-09-12T17:54:02.534Z,4.40
2022-09-12T17:56:32.163Z,4.20
2022-09-12T17:59:00.748Z,4.30
2022-09-12T18:01:47.512Z,3.60
2022-09-12T18:04:15.620Z,3.37
2022-09-12T18:06:47.960Z,3.73
2022-09-12T18:09:19.593Z,4.30
2022-09-12T18:11:48.317Z,3.37
2022-09-12T18:14:17.291Z,3.80
2022-09-12T18:16:45.425Z,4.10
2022-09-12T18:19:13.931Z,3.70
2022-09-12T18:21:42.332Z,2.90
2022-09-12T18:24:10.603Z,3.70
2022-09-12T18:26:39.739Z,3.10
2022-09-12T18:29:07.991Z,3.50
2022-09-12T18:31:36.951Z,2.93
2022-09-12T18:34:06.118Z,2.80
2022-09-12T18:36:33.912Z,4.23
2022-09-12T18:39:01.868Z,3.30
2022-09-12T18:41:29.829Z,3.00
2022-09-12T18:44:00.954Z,2.80
2022-09-12T18:46:31.337Z,2.80
2022-09-12T18:48:59.877Z,3.63
2022-09-12T18:51:31.411Z,3.10
2022-09-12T18:54:01.089Z,3.23
2022-09-12T18:56:32.626Z,2.93
2022-09-12T18:59:05.072Z,3.30
2022-09-12T19:01:34.569Z,3.17
2022-09-12T19:04:04.716Z,3.30
2022-09-12T19:06:35.049Z,3.37
2022-09-12T19:09:07.555Z,3.17
2022-09-12T19:11:38.121Z,3.07
2022-09-12T19:14:08.046Z,2.80
2022-09-12T19:16:36.415Z,3.10
2022-09-12T19:19:04.665Z,3.50
2022-09-12T19:21:34.229Z,3.50
2022-09-12T19:24:06.882Z,3.63
2022-09-12T19:26:35.925Z,3.53
2022-09-12T19:29:04.924Z,3.90
2022-09-12T19:31:34.215Z,4.10
2022-09-12T19:34:03.159Z,3.63
2022-09-12T19:36:45.025Z,4.27
2022-09-12T19:39:13.947Z,4.27
2022-09-12T19:41:42.472Z,4.60
2022-09-12T19:44:11.437Z,4.73
2022-09-12T19:46:40.812Z,4.40
2022-09-12T19:49:10.381Z,4.50
2022-09-12T19:51:38.191Z,4.83
2022-09-12T19:54:06.061Z,4.13
2022-09-12T19:56:33.845Z,4.23
2022-09-12T19:59:01.686Z,4.07
2022-09-12T20:01:29.602Z,3.80
2022-09-12T20:03:59.139Z,4.37
2022-09-12T20:06:27.906Z,4.30
2022-09-12T20:08:56.190Z,4.50
2022-09-12T20:11:25.577Z,5.00
2022-09-12T20:13:53.687Z,4.80
2022-09-12T20:16:24.466Z,4.43
2022-09-12T20:18:57.745Z,4.63
2022-09-12T20:21:31.402Z,4.20
2022-09-12T20:24:04.870Z,4.90
2022-09-12T20:26:32.817Z,4.50
2022-09-12T20:29:01.257Z,4.20
2022-09-12T20:31:30.234Z,4.93
2022-09-12T20:33:58.453Z,3.87
2022-09-12T20:36:27.927Z,4.57
2022-09-12T20:38:57.887Z,4.50
2022-09-12T20:41:27.258Z,4.77
2022-09-12T20:43:56.357Z,5.27
2022-09-12T20:46:26.395Z,5.17
2022-09-12T20:48:54.499Z,4.80
2022-09-12T20:51:23.116Z,4.43
2022-09-12T20:53:55.280Z,5.20
2022-09-12T20:56:24.434Z,4.43
2022-09-12T20:58:52.515Z,4.83
2022-09-12T21:01:21.018Z,5.37
2022-09-12T21:03:49.801Z,5.63
2022-09-12T21:06:18.501Z,4.70
2022-09-12T21:08:47.415Z,5.00
2022-09-12T21:11:17.289Z,4.90
2022-09-12T21:13:45.156Z,5.27
2022-09-12T21:16:15.050Z,8.83
2022-09-12T21:18:43.326Z,9.43
2022-09-12T21:21:12.373Z,5.30
2022-09-12T21:23:41.205Z,5.27
2022-09-12T21:26:09.699Z,5.30
2022-09-12T21:28:38.832Z,4.80
2022-09-12T21:31:07.010Z,4.60
2022-09-12T21:33:34.848Z,5.27
2022-09-12T21:36:03.984Z,5.00
2022-09-12T21:38:32.448Z,4.13
2022-09-12T21:41:04.812Z,5.33
2022-09-12T21:43:32.783Z,21.03
2022-09-12T21:46:02.883Z,10.80
2022-09-12T21:48:31.269Z,7.20
2022-09-12T21:50:59.345Z,5.80
2022-09-12T21:53:27.261Z,5.77
2022-09-12T21:55:55.086Z,5.23
2022-09-12T21:58:22.919Z,5.17
2022-09-12T22:00:51.157Z,4.83
2022-09-12T22:03:20.430Z,5.13
2022-09-12T22:05:52.367Z,4.67
2022-09-12T22:08:20.185Z,5.03
2022-09-12T22:10:47.987Z,4.60
2022-09-12T22:13:15.806Z,4.93
2022-09-12T22:15:45.329Z,4.97
2022-09-12T22:18:13.211Z,5.47
2022-09-12T22:20:42.399Z,4.90
2022-09-12T22:23:29.993Z,4.90
2022-09-12T22:25:58.561Z,4.50
2022-09-12T22:28:26.380Z,4.97
2022-09-12T22:30:54.979Z,4.60
2022-09-12T22:33:23.133Z,4.67
2022-09-12T22:35:52.258Z,4.67
2022-09-12T22:38:20.233Z,4.50
2022-09-12T22:40:48.022Z,4.77
2022-09-12T22:43:15.805Z,4.20
2022-09-12T22:45:43.779Z,4.80
2022-09-12T22:48:11.580Z,4.90
2022-09-12T22:50:39.464Z,5.13
2022-09-12T22:53:11.493Z,5.57
2022-09-12T22:55:39.311Z,5.80
2022-09-12T22:58:07.123Z,5.77
2022-09-12T23:00:35.269Z,4.80
2022-09-12T23:03:03.182Z,5.60
2022-09-12T23:05:31.462Z,5.13
2022-09-12T23:07:59.271Z,4.90
2022-09-12T23:10:28.455Z,5.57
2022-09-12T23:12:56.484Z,4.90
2022-09-12T23:15:24.272Z,5.13
2022-09-12T23:17:52.084Z,5.20
2022-09-12T23:20:19.872Z,4.70
2022-09-12T23:22:47.675Z,4.40
2022-09-12T23:25:15.508Z,5.00
2022-09-12T23:27:44.887Z,5.00
2022-09-12T23:30:12.970Z,5.10
2022-09-12T23:32:40.857Z,4.87
2022-09-12T23:35:08.848Z,4.70
2022-09-12T23:37:36.620Z,4.80
2022-09-12T23:40:05.606Z,5.10
2022-09-12T23:42:33.541Z,4.70
2022-09-12T23:45:02.715Z,4.43
2022-09-12T23:47:30.652Z,5.10
2022-09-12T23:49:58.444Z,5.30
2022-09-12T23:52:26.236Z,4.80
2022-09-12T23:54:54.091Z,5.07
2022-09-12T23:57:21.960Z,5.30
2022-09-12T23:59:49.733Z,5.10
